sensor_id;sensor_type;location;lat;lon;timestamp;P1;durP1;ratioP1;P2;durP2;ratioP2
13309;SDS011;6723;48.256;16.402;2023-02-28T00:00:26;10.00;;;7.23;;
13309;SDS011;6723;48.256;16.402;2023-02-28T00:02:55;10.33;;;7.47;;
13309;SDS011;6723;48.256;16.402;2023-02-28T00:05:22;12.27;;;7.30;;
13309;SDS011;6723;48.256;16.402;2023-02-28T00:07:49;10.10;;;6.97;;
13309;SDS011;6723;48.256;16.402;2023-02-28T00:10:23;9.73;;;6.60;;
13309;SDS011;6723;48.256;16.402;2023-02-28T00:12:52;11.43;;;7.27;;
13309;SDS011;6723;48.256;16.402;2023-02-28T00:15:19;11.23;;;7.33;;
13309;SDS011;6723;48.256;16.402;2023-02-28T00:17:46;12.10;;;7.40;;
13309;SDS011;6723;48.256;16.402;2023-02-28T00:20:12;9.90;;;6.67;;
13309;SDS011;6723;48.256;16.402;2023-02-28T00:22:39;11.13;;;7.13;;
13309;SDS011;6723;48.256;16.402;2023-02-28T00:25:11;11.90;;;7.00;;
13309;SDS011;6723;48.256;16.402;2023-02-28T00:27:39;10.53;;;7.63;;
13309;SDS011;6723;48.256;16.402;2023-02-28T00:30:06;9.80;;;6.97;;
13309;SDS011;6723;48.256;16.402;2023-02-28T00:32:33;11.17;;;7.53;;
13309;SDS011;6723;48.256;16.402;2023-02-28T00:34:59;11.73;;;8.53;;
13309;SDS011;6723;48.256;16.402;2023-02-28T00:37:27;12.57;;;7.73;;
13309;SDS011;6723;48.256;16.402;2023-02-28T00:39:53;9.97;;;7.23;;
13309;SDS011;6723;48.256;16.402;2023-02-28T00:42:19;12.00;;;7.60;;
13309;SDS011;6723;48.256;16.402;2023-02-28T00:44:44;10.73;;;7.33;;
13309;SDS011;6723;48.256;16.402;2023-02-28T00:47:10;12.00;;;7.33;;
13309;SDS011;6723;48.256;16.402;2023-02-28T00:49:36;10.20;;;7.00;;
13309;SDS011;6723;48.256;16.402;2023-02-28T00:52:02;12.03;;;7.90;;
13309;SDS011;6723;48.256;16.402;2023-02-28T00:54:27;11.57;;;7.40;;
13309;SDS011;6723;48.256;16.402;2023-02-28T00:56:54;10.10;;;7.33;;
13309;SDS011;6723;48.256;16.402;2023-02-28T00:59:20;11.33;;;7.50;;
13309;SDS011;6723;48.256;16.402;2023-02-28T01:01:46;10.03;;;7.50;;
13309;SDS011;6723;48.256;16.402;2023-02-28T01:04:12;12.03;;;7.87;;
13309;SDS011;6723;48.256;16.402;2023-02-28T01:06:42;12.43;;;7.53;;
13309;SDS011;6723;48.256;16.402;2023-02-28T01:09:08;12.77;;;8.23;;
13309;SDS011;6723;48.256;16.402;2023-02-28T01:11:34;12.90;;;8.17;;
13309;SDS011;6723;48.256;16.402;2023-02-28T01:14:01;10.90;;;7.77;;
13309;SDS011;6723;48.256;16.402;2023-02-28T01:16:27;11.40;;;7.80;;
13309;SDS011;6723;48.256;16.402;2023-02-28T01:18:54;11.10;;;7.40;;
13309;SDS011;6723;48.256;16.402;2023-02-28T01:21:20;11.93;;;7.93;;
13309;SDS011;6723;48.256;16.402;2023-02-28T01:23:47;11.67;;;7.93;;
13309;SDS011;6723;48.256;16.402;2023-02-28T01:26:14;10.57;;;7.23;;
13309;SDS011;6723;48.256;16.402;2023-02-28T01:28:42;11.27;;;7.50;;
13309;SDS011;6723;48.256;16.402;2023-02-28T01:31:08;11.53;;;7.83;;
13309;SDS011;6723;48.256;16.402;2023-02-28T01:33:35;11.27;;;7.97;;
13309;SDS011;6723;48.256;16.402;2023-02-28T01:36:03;11.03;;;7.37;;
13309;SDS011;6723;48.256;16.402;2023-02-28T01:38:37;12.70;;;7.50;;
13309;SDS011;6723;48.256;16.402;2023-02-28T01:41:03;11.90;;;7.83;;
13309;SDS011;6723;48.256;16.402;2023-02-28T01:46:07;11.07;;;7.90;;
13309;SDS011;6723;48.256;16.402;2023-02-28T01:48:34;11.30;;;7.83;;
13309;SDS011;6723;48.256;16.402;2023-02-28T01:51:08;10.03;;;7.57;;
13309;SDS011;6723;48.256;16.402;2023-02-28T01:53:45;12.13;;;7.70;;
13309;SDS011;6723;48.256;16.402;2023-02-28T01:56:14;11.37;;;7.77;;
13309;SDS011;6723;48.256;16.402;2023-02-28T01:58:52;12.90;;;7.90;;
13309;SDS011;6723;48.256;16.402;2023-02-28T02:01:20;12.20;;;7.73;;
13309;SDS011;6723;48.256;16.402;2023-02-28T02:03:48;9.73;;;7.07;;
13309;SDS011;6723;48.256;16.402;2023-02-28T02:06:30;12.93;;;8.03;;
13309;SDS011;6723;48.256;16.402;2023-02-28T02:09:02;10.90;;;8.00;;
13309;SDS011;6723;48.256;16.402;2023-02-28T02:11:28;13.00;;;8.03;;
13309;SDS011;6723;48.256;16.402;2023-02-28T02:13:59;10.97;;;7.67;;
13309;SDS011;6723;48.256;16.402;2023-02-28T02:16:45;12.33;;;7.63;;
13309;SDS011;6723;48.256;16.402;2023-02-28T02:19:24;13.90;;;8.07;;
13309;SDS011;6723;48.256;16.402;2023-02-28T02:22:21;12.50;;;7.70;;
13309;SDS011;6723;48.256;16.402;2023-02-28T02:40:38;11.73;;;7.50;;
13309;SDS011;6723;48.256;16.402;2023-02-28T02:43:36;12.57;;;8.47;;
13309;SDS011;6723;48.256;16.402;2023-02-28T02:46:37;14.27;;;8.50;;
13309;SDS011;6723;48.256;16.402;2023-02-28T02:49:05;12.47;;;8.20;;
13309;SDS011;6723;48.256;16.402;2023-02-28T02:51:55;15.20;;;8.83;;
13309;SDS011;6723;48.256;16.402;2023-02-28T02:54:24;14.70;;;8.80;;
13309;SDS011;6723;48.256;16.402;2023-02-28T02:56:53;13.23;;;8.60;;
13309;SDS011;6723;48.256;16.402;2023-02-28T02:59:23;13.50;;;8.97;;
13309;SDS011;6723;48.256;16.402;2023-02-28T03:01:51;12.97;;;8.33;;
13309;SDS011;6723;48.256;16.402;2023-02-28T03:04:20;13.97;;;8.43;;
13309;SDS011;6723;48.256;16.402;2023-02-28T03:06:48;11.27;;;8.23;;
13309;SDS011;6723;48.256;16.402;2023-02-28T03:09:20;16.33;;;8.57;;
13309;SDS011;6723;48.256;16.402;2023-02-28T03:11:47;14.17;;;8.77;;
13309;SDS011;6723;48.256;16.402;2023-02-28T03:22:27;11.50;;;8.00;;
13309;SDS011;6723;48.256;16.402;2023-02-28T03:25:27;11.60;;;8.23;;
13309;SDS011;6723;48.256;16.402;2023-02-28T03:28:02;11.77;;;8.10;;
13309;SDS011;6723;48.256;16.402;2023-02-28T03:30:43;11.13;;;8.17;;
13309;SDS011;6723;48.256;16.402;2023-02-28T03:33:25;13.37;;;8.20;;
13309;SDS011;6723;48.256;16.402;2023-02-28T03:36:06;12.50;;;8.30;;
13309;SDS011;6723;48.256;16.402;2023-02-28T03:38:38;12.50;;;8.00;;
13309;SDS011;6723;48.256;16.402;2023-02-28T03:41:10;12.50;;;8.47;;
13309;SDS011;6723;48.256;16.402;2023-02-28T03:43:43;12.47;;;8.33;;
13309;SDS011;6723;48.256;16.402;2023-02-28T03:46:16;12.97;;;8.40;;
13309;SDS011;6723;48.256;16.402;2023-02-28T03:51:49;11.83;;;7.77;;
13309;SDS011;6723;48.256;16.402;2023-02-28T03:54:22;11.67;;;7.87;;
13309;SDS011;6723;48.256;16.402;2023-02-28T03:56:59;12.57;;;8.53;;
13309;SDS011;6723;48.256;16.402;2023-02-28T03:59:46;13.20;;;8.37;;
13309;SDS011;6723;48.256;16.402;2023-02-28T04:02:18;16.00;;;8.60;;
13309;SDS011;6723;48.256;16.402;2023-02-28T04:04:43;13.93;;;9.30;;
13309;SDS011;6723;48.256;16.402;2023-02-28T04:07:10;11.73;;;8.30;;
13309;SDS011;6723;48.256;16.402;2023-02-28T04:09:37;14.10;;;8.60;;
13309;SDS011;6723;48.256;16.402;2023-02-28T04:12:03;12.83;;;8.13;;
13309;SDS011;6723;48.256;16.402;2023-02-28T04:14:29;13.57;;;8.73;;
13309;SDS011;6723;48.256;16.402;2023-02-28T04:16:55;12.53;;;8.50;;
13309;SDS011;6723;48.256;16.402;2023-02-28T04:19:20;13.80;;;7.83;;
13309;SDS011;6723;48.256;16.402;2023-02-28T04:21:47;13.40;;;8.07;;
13309;SDS011;6723;48.256;16.402;2023-02-28T04:24:19;13.20;;;8.50;;
13309;SDS011;6723;48.256;16.402;2023-02-28T04:26:47;12.00;;;8.03;;
13309;SDS011;6723;48.256;16.402;2023-02-28T04:29:22;14.67;;;8.13;;
13309;SDS011;6723;48.256;16.402;2023-02-28T04:31:50;15.67;;;8.47;;
13309;SDS011;6723;48.256;16.402;2023-02-28T04:34:18;13.53;;;8.50;;
13309;SDS011;6723;48.256;16.402;2023-02-28T04:36:46;13.67;;;9.27;;
13309;SDS011;6723;48.256;16.402;2023-02-28T04:39:14;13.70;;;10.27;;
13309;SDS011;6723;48.256;16.402;2023-02-28T04:41:43;14.83;;;9.80;;
13309;SDS011;6723;48.256;16.402;2023-02-28T04:44:10;15.10;;;9.70;;
13309;SDS011;6723;48.256;16.402;2023-02-28T04:46:36;13.53;;;8.73;;
13309;SDS011;6723;48.256;16.402;2023-02-28T04:49:02;15.73;;;9.70;;
13309;SDS011;6723;48.256;16.402;2023-02-28T04:51:28;13.47;;;9.10;;
13309;SDS011;6723;48.256;16.402;2023-02-28T04:53:54;14.10;;;8.53;;
13309;SDS011;6723;48.256;16.402;2023-02-28T04:56:20;13.17;;;8.30;;
13309;SDS011;6723;48.256;16.402;2023-02-28T04:58:47;12.37;;;8.50;;
13309;SDS011;6723;48.256;16.402;2023-02-28T05:01:21;13.37;;;8.60;;
13309;SDS011;6723;48.256;16.402;2023-02-28T05:03:59;13.63;;;8.67;;
13309;SDS011;6723;48.256;16.402;2023-02-28T05:06:27;14.67;;;8.43;;
13309;SDS011;6723;48.256;16.402;2023-02-28T05:08:55;14.87;;;8.40;;
13309;SDS011;6723;48.256;16.402;2023-02-28T05:11:26;15.23;;;9.07;;
13309;SDS011;6723;48.256;16.402;2023-02-28T05:13:54;13.77;;;8.70;;
13309;SDS011;6723;48.256;16.402;2023-02-28T05:16:21;16.50;;;8.97;;
13309;SDS011;6723;48.256;16.402;2023-02-28T05:18:47;14.83;;;9.17;;
13309;SDS011;6723;48.256;16.402;2023-02-28T05:23:56;13.83;;;9.20;;
13309;SDS011;6723;48.256;16.402;2023-02-28T05:26:26;11.97;;;8.57;;
13309;SDS011;6723;48.256;16.402;2023-02-28T05:28:53;14.17;;;9.13;;
13309;SDS011;6723;48.256;16.402;2023-02-28T05:31:19;15.27;;;9.10;;
13309;SDS011;6723;48.256;16.402;2023-02-28T05:33:45;14.40;;;8.90;;
13309;SDS011;6723;48.256;16.402;2023-02-28T05:36:11;15.20;;;8.97;;
13309;SDS011;6723;48.256;16.402;2023-02-28T05:38:37;16.50;;;9.93;;
13309;SDS011;6723;48.256;16.402;2023-02-28T05:41:07;13.43;;;9.30;;
13309;SDS011;6723;48.256;16.402;2023-02-28T05:43:37;15.30;;;9.50;;
13309;SDS011;6723;48.256;16.402;2023-02-28T05:46:04;13.50;;;9.47;;
13309;SDS011;6723;48.256;16.402;2023-02-28T05:48:35;17.47;;;9.77;;
13309;SDS011;6723;48.256;16.402;2023-02-28T05:51:02;16.37;;;10.77;;
13309;SDS011;6723;48.256;16.402;2023-02-28T05:53:30;15.67;;;9.93;;
13309;SDS011;6723;48.256;16.402;2023-02-28T05:55:56;14.73;;;10.13;;
13309;SDS011;6723;48.256;16.402;2023-02-28T05:58:22;16.97;;;9.67;;
13309;SDS011;6723;48.256;16.402;2023-02-28T06:00:51;15.33;;;10.17;;
13309;SDS011;6723;48.256;16.402;2023-02-28T06:03:17;16.23;;;10.20;;
13309;SDS011;6723;48.256;16.402;2023-02-28T06:05:42;13.40;;;9.50;;
13309;SDS011;6723;48.256;16.402;2023-02-28T06:08:08;16.77;;;9.27;;
13309;SDS011;6723;48.256;16.402;2023-02-28T06:10:34;19.50;;;10.00;;
13309;SDS011;6723;48.256;16.402;2023-02-28T06:13:01;15.27;;;9.70;;
13309;SDS011;6723;48.256;16.402;2023-02-28T06:15:28;16.00;;;9.40;;
13309;SDS011;6723;48.256;16.402;2023-02-28T06:17:55;17.73;;;9.97;;
13309;SDS011;6723;48.256;16.402;2023-02-28T06:20:22;19.97;;;10.57;;
13309;SDS011;6723;48.256;16.402;2023-02-28T06:22:49;16.53;;;9.83;;
13309;SDS011;6723;48.256;16.402;2023-02-28T06:25:16;13.57;;;9.47;;
13309;SDS011;6723;48.256;16.402;2023-02-28T06:27:43;14.77;;;9.60;;
13309;SDS011;6723;48.256;16.402;2023-02-28T06:30:09;15.57;;;9.53;;
13309;SDS011;6723;48.256;16.402;2023-02-28T06:32:36;16.60;;;9.60;;
13309;SDS011;6723;48.256;16.402;2023-02-28T06:35:02;16.70;;;9.83;;
13309;SDS011;6723;48.256;16.402;2023-02-28T06:37:29;20.13;;;10.57;;
13309;SDS011;6723;48.256;16.402;2023-02-28T06:39:56;17.67;;;11.73;;
13309;SDS011;6723;48.256;16.402;2023-02-28T06:42:23;17.13;;;10.10;;
13309;SDS011;6723;48.256;16.402;2023-02-28T06:44:57;14.63;;;9.50;;
13309;SDS011;6723;48.256;16.402;2023-02-28T06:47:22;18.73;;;10.97;;
13309;SDS011;6723;48.256;16.402;2023-02-28T06:49:48;15.30;;;10.83;;
13309;SDS011;6723;48.256;16.402;2023-02-28T06:52:15;14.67;;;10.03;;
13309;SDS011;6723;48.256;16.402;2023-02-28T06:54:41;14.47;;;10.27;;
13309;SDS011;6723;48.256;16.402;2023-02-28T06:57:07;13.97;;;9.97;;
13309;SDS011;6723;48.256;16.402;2023-02-28T06:59:33;15.63;;;10.63;;
13309;SDS011;6723;48.256;16.402;2023-02-28T07:02:00;15.27;;;9.97;;
13309;SDS011;6723;48.256;16.402;2023-02-28T07:04:27;16.10;;;11.10;;
13309;SDS011;6723;48.256;16.402;2023-02-28T07:06:54;15.57;;;10.33;;
13309;SDS011;6723;48.256;16.402;2023-02-28T07:09:22;16.90;;;10.90;;
13309;SDS011;6723;48.256;16.402;2023-02-28T07:11:48;16.57;;;10.40;;
13309;SDS011;6723;48.256;16.402;2023-02-28T07:14:14;15.33;;;10.97;;
13309;SDS011;6723;48.256;16.402;2023-02-28T07:16:40;17.80;;;11.03;;
13309;SDS011;6723;48.256;16.402;2023-02-28T07:19:06;15.67;;;10.33;;
13309;SDS011;6723;48.256;16.402;2023-02-28T07:21:31;16.23;;;10.03;;
13309;SDS011;6723;48.256;16.402;2023-02-28T07:23:57;17.60;;;10.87;;
13309;SDS011;6723;48.256;16.402;2023-02-28T07:26:23;14.67;;;10.20;;
13309;SDS011;6723;48.256;16.402;2023-02-28T07:28:48;15.67;;;9.77;;
13309;SDS011;6723;48.256;16.402;2023-02-28T07:31:15;17.07;;;10.80;;
13309;SDS011;6723;48.256;16.402;2023-02-28T07:33:43;14.67;;;10.30;;
13309;SDS011;6723;48.256;16.402;2023-02-28T07:36:11;16.37;;;10.53;;
13309;SDS011;6723;48.256;16.402;2023-02-28T07:38:44;18.87;;;10.40;;
13309;SDS011;6723;48.256;16.402;2023-02-28T07:41:13;16.00;;;10.17;;
13309;SDS011;6723;48.256;16.402;2023-02-28T07:43:40;17.90;;;10.87;;
13309;SDS011;6723;48.256;16.402;2023-02-28T07:46:08;15.67;;;10.93;;
13309;SDS011;6723;48.256;16.402;2023-02-28T07:48:35;14.70;;;10.90;;
13309;SDS011;6723;48.256;16.402;2023-02-28T07:51:01;17.70;;;10.93;;
13309;SDS011;6723;48.256;16.402;2023-02-28T07:53:28;16.93;;;11.43;;
13309;SDS011;6723;48.256;16.402;2023-02-28T07:55:55;16.67;;;11.10;;
13309;SDS011;6723;48.256;16.402;2023-02-28T07:58:22;20.30;;;11.07;;
13309;SDS011;6723;48.256;16.402;2023-02-28T08:00:50;16.83;;;10.97;;
13309;SDS011;6723;48.256;16.402;2023-02-28T08:03:17;17.43;;;11.47;;
13309;SDS011;6723;48.256;16.402;2023-02-28T08:05:44;16.40;;;10.97;;
13309;SDS011;6723;48.256;16.402;2023-02-28T08:08:09;17.17;;;11.20;;
13309;SDS011;6723;48.256;16.402;2023-02-28T08:10:35;21.20;;;10.60;;
13309;SDS011;6723;48.256;16.402;2023-02-28T08:13:01;16.07;;;11.10;;
13309;SDS011;6723;48.256;16.402;2023-02-28T08:15:28;15.63;;;11.27;;
13309;SDS011;6723;48.256;16.402;2023-02-28T08:17:53;14.50;;;10.90;;
13309;SDS011;6723;48.256;16.402;2023-02-28T08:20:21;18.97;;;11.53;;
13309;SDS011;6723;48.256;16.402;2023-02-28T08:22:58;15.87;;;11.10;;
13309;SDS011;6723;48.256;16.402;2023-02-28T08:25:24;17.63;;;11.67;;
13309;SDS011;6723;48.256;16.402;2023-02-28T08:27:51;21.67;;;11.63;;
13309;SDS011;6723;48.256;16.402;2023-02-28T08:30:17;17.23;;;11.47;;
13309;SDS011;6723;48.256;16.402;2023-02-28T08:32:43;16.83;;;11.17;;
13309;SDS011;6723;48.256;16.402;2023-02-28T08:35:09;14.93;;;11.20;;
13309;SDS011;6723;48.256;16.402;2023-02-28T08:37:35;15.37;;;11.50;;
13309;SDS011;6723;48.256;16.402;2023-02-28T08:40:01;17.40;;;11.53;;
13309;SDS011;6723;48.256;16.402;2023-02-28T08:42:28;16.57;;;11.50;;
13309;SDS011;6723;48.256;16.402;2023-02-28T08:44:54;17.70;;;11.43;;
13309;SDS011;6723;48.256;16.402;2023-02-28T08:47:21;17.07;;;11.33;;
13309;SDS011;6723;48.256;16.402;2023-02-28T08:49:47;20.60;;;11.90;;
13309;SDS011;6723;48.256;16.402;2023-02-28T08:52:13;16.27;;;11.40;;
13309;SDS011;6723;48.256;16.402;2023-02-28T08:54:38;16.27;;;12.17;;
13309;SDS011;6723;48.256;16.402;2023-02-28T08:57:04;17.20;;;12.17;;
13309;SDS011;6723;48.256;16.402;2023-02-28T08:59:30;15.17;;;12.23;;
13309;SDS011;6723;48.256;16.402;2023-02-28T09:01:56;16.50;;;12.23;;
13309;SDS011;6723;48.256;16.402;2023-02-28T09:04:22;15.53;;;12.43;;
13309;SDS011;6723;48.256;16.402;2023-02-28T09:10:02;16.73;;;12.67;;
13309;SDS011;6723;48.256;16.402;2023-02-28T09:12:28;17.40;;;12.33;;
13309;SDS011;6723;48.256;16.402;2023-02-28T09:14:58;17.67;;;12.77;;
13309;SDS011;6723;48.256;16.402;2023-02-28T09:17:24;20.37;;;12.77;;
13309;SDS011;6723;48.256;16.402;2023-02-28T09:22:19;19.17;;;13.00;;
13309;SDS011;6723;48.256;16.402;2023-02-28T09:24:45;19.23;;;11.83;;
13309;SDS011;6723;48.256;16.402;2023-02-28T09:27:10;16.80;;;12.67;;
13309;SDS011;6723;48.256;16.402;2023-02-28T09:29:36;16.60;;;11.73;;
13309;SDS011;6723;48.256;16.402;2023-02-28T09:32:02;14.67;;;11.83;;
13309;SDS011;6723;48.256;16.402;2023-02-28T09:34:30;16.07;;;12.40;;
13309;SDS011;6723;48.256;16.402;2023-02-28T09:36:57;14.80;;;12.03;;
13309;SDS011;6723;48.256;16.402;2023-02-28T09:39:22;16.57;;;12.50;;
13309;SDS011;6723;48.256;16.402;2023-02-28T09:41:51;15.37;;;11.97;;
13309;SDS011;6723;48.256;16.402;2023-02-28T09:44:24;15.53;;;12.57;;
13309;SDS011;6723;48.256;16.402;2023-02-28T09:47:10;16.33;;;12.33;;
13309;SDS011;6723;48.256;16.402;2023-02-28T09:49:52;14.93;;;11.80;;
13309;SDS011;6723;48.256;16.402;2023-02-28T09:52:21;17.97;;;12.70;;
13309;SDS011;6723;48.256;16.402;2023-02-28T09:54:53;13.50;;;11.40;;
13309;SDS011;6723;48.256;16.402;2023-02-28T10:08:18;14.17;;;11.33;;
13309;SDS011;6723;48.256;16.402;2023-02-28T10:10:51;14.30;;;12.07;;
13309;SDS011;6723;48.256;16.402;2023-02-28T10:15:54;16.60;;;11.93;;
13309;SDS011;6723;48.256;16.402;2023-02-28T10:18:25;17.87;;;12.80;;
13309;SDS011;6723;48.256;16.402;2023-02-28T10:23:47;16.67;;;13.20;;
13309;SDS011;6723;48.256;16.402;2023-02-28T10:26:15;15.13;;;12.70;;
13309;SDS011;6723;48.256;16.402;2023-02-28T10:28:43;16.90;;;13.00;;
13309;SDS011;6723;48.256;16.402;2023-02-28T10:31:19;15.47;;;12.63;;
13309;SDS011;6723;48.256;16.402;2023-02-28T10:33:46;17.00;;;13.23;;
13309;SDS011;6723;48.256;16.402;2023-02-28T10:36:17;18.73;;;13.17;;
13309;SDS011;6723;48.256;16.402;2023-02-28T10:38:45;20.07;;;13.13;;
13309;SDS011;6723;48.256;16.402;2023-02-28T10:41:13;17.07;;;12.40;;
13309;SDS011;6723;48.256;16.402;2023-02-28T10:44:11;16.00;;;12.80;;
13309;SDS011;6723;48.256;16.402;2023-02-28T10:46:39;15.40;;;11.93;;
13309;SDS011;6723;48.256;16.402;2023-02-28T10:49:12;15.80;;;12.77;;
13309;SDS011;6723;48.256;16.402;2023-02-28T10:51:42;15.30;;;12.67;;
13309;SDS011;6723;48.256;16.402;2023-02-28T10:54:15;15.27;;;12.73;;
13309;SDS011;6723;48.256;16.402;2023-02-28T10:56:44;14.07;;;12.43;;
13309;SDS011;6723;48.256;16.402;2023-02-28T11:01:50;17.80;;;13.37;;
13309;SDS011;6723;48.256;16.402;2023-02-28T11:07:01;15.43;;;12.30;;
13309;SDS011;6723;48.256;16.402;2023-02-28T11:09:38;14.90;;;12.43;;
13309;SDS011;6723;48.256;16.402;2023-02-28T11:12:10;15.87;;;12.43;;
13309;SDS011;6723;48.256;16.402;2023-02-28T11:14:57;16.00;;;12.70;;
13309;SDS011;6723;48.256;16.402;2023-02-28T11:17:43;14.80;;;11.57;;
13309;SDS011;6723;48.256;16.402;2023-02-28T11:20:10;17.50;;;12.10;;
13309;SDS011;6723;48.256;16.402;2023-02-28T11:22:46;15.40;;;11.70;;
13309;SDS011;6723;48.256;16.402;2023-02-28T11:25:22;14.57;;;11.43;;
13309;SDS011;6723;48.256;16.402;2023-02-28T11:27:53;18.40;;;12.00;;
13309;SDS011;6723;48.256;16.402;2023-02-28T11:30:29;15.93;;;12.13;;
13309;SDS011;6723;48.256;16.402;2023-02-28T11:33:20;17.73;;;13.53;;
13309;SDS011;6723;48.256;16.402;2023-02-28T11:36:00;14.80;;;11.97;;
13309;SDS011;6723;48.256;16.402;2023-02-28T11:38:28;14.50;;;11.47;;
13309;SDS011;6723;48.256;16.402;2023-02-28T11:43:39;15.77;;;11.87;;
13309;SDS011;6723;48.256;16.402;2023-02-28T11:54:35;15.97;;;12.10;;
13309;SDS011;6723;48.256;16.402;2023-02-28T12:03:03;14.10;;;11.63;;
13309;SDS011;6723;48.256;16.402;2023-02-28T12:11:56;14.93;;;12.10;;
13309;SDS011;6723;48.256;16.402;2023-02-28T12:17:43;15.73;;;12.10;;
13309;SDS011;6723;48.256;16.402;2023-02-28T12:20:40;13.77;;;10.93;;
13309;SDS011;6723;48.256;16.402;2023-02-28T12:26:45;13.43;;;11.70;;
13309;SDS011;6723;48.256;16.402;2023-02-28T12:29:25;15.90;;;11.53;;
13309;SDS011;6723;48.256;16.402;2023-02-28T12:37:14;13.10;;;10.83;;
13309;SDS011;6723;48.256;16.402;2023-02-28T12:39:54;14.03;;;11.53;;
13309;SDS011;6723;48.256;16.402;2023-02-28T12:42:27;15.00;;;11.90;;
13309;SDS011;6723;48.256;16.402;2023-02-28T12:44:59;16.80;;;11.30;;
13309;SDS011;6723;48.256;16.402;2023-02-28T12:47:28;15.47;;;11.87;;
13309;SDS011;6723;48.256;16.402;2023-02-28T12:49:56;14.70;;;11.20;;
13309;SDS011;6723;48.256;16.402;2023-02-28T12:52:28;16.07;;;12.03;;
13309;SDS011;6723;48.256;16.402;2023-02-28T12:55:19;13.53;;;10.90;;
13309;SDS011;6723;48.256;16.402;2023-02-28T12:57:52;14.20;;;11.00;;
13309;SDS011;6723;48.256;16.402;2023-02-28T13:00:22;15.40;;;10.87;;
13309;SDS011;6723;48.256;16.402;2023-02-28T13:03:12;13.40;;;10.73;;
13309;SDS011;6723;48.256;16.402;2023-02-28T13:14:05;12.90;;;9.93;;
13309;SDS011;6723;48.256;16.402;2023-02-28T13:16:48;12.57;;;10.00;;
13309;SDS011;6723;48.256;16.402;2023-02-28T13:19:18;16.27;;;10.50;;
13309;SDS011;6723;48.256;16.402;2023-02-28T13:21:49;13.60;;;9.70;;
13309;SDS011;6723;48.256;16.402;2023-02-28T13:29:30;12.20;;;9.60;;
13309;SDS011;6723;48.256;16.402;2023-02-28T13:34:34;10.53;;;8.73;;
13309;SDS011;6723;48.256;16.402;2023-02-28T13:47:31;11.50;;;9.23;;
13309;SDS011;6723;48.256;16.402;2023-02-28T14:06:17;11.10;;;8.67;;
13309;SDS011;6723;48.256;16.402;2023-02-28T14:11:52;12.30;;;8.50;;
13309;SDS011;6723;48.256;16.402;2023-02-28T14:17:03;14.90;;;8.80;;
13309;SDS011;6723;48.256;16.402;2023-02-28T14:19:37;12.63;;;9.07;;
13309;SDS011;6723;48.256;16.402;2023-02-28T14:22:19;14.30;;;9.30;;
13309;SDS011;6723;48.256;16.402;2023-02-28T14:25:15;16.23;;;8.70;;
13309;SDS011;6723;48.256;16.402;2023-02-28T14:27:53;12.90;;;9.00;;
13309;SDS011;6723;48.256;16.402;2023-02-28T14:36:26;14.03;;;9.50;;
13309;SDS011;6723;48.256;16.402;2023-02-28T14:38:58;11.93;;;9.57;;
13309;SDS011;6723;48.256;16.402;2023-02-28T14:41:37;13.43;;;9.43;;
13309;SDS011;6723;48.256;16.402;2023-02-28T14:44:15;17.87;;;9.43;;
13309;SDS011;6723;48.256;16.402;2023-02-28T14:46:48;12.43;;;8.80;;
13309;SDS011;6723;48.256;16.402;2023-02-28T14:49:26;11.37;;;8.27;;
13309;SDS011;6723;48.256;16.402;2023-02-28T14:54:35;11.60;;;9.20;;
13309;SDS011;6723;48.256;16.402;2023-02-28T14:57:02;12.10;;;8.83;;
13309;SDS011;6723;48.256;16.402;2023-02-28T14:59:32;11.53;;;8.70;;
13309;SDS011;6723;48.256;16.402;2023-02-28T15:04:53;18.87;;;11.80;;
13309;SDS011;6723;48.256;16.402;2023-02-28T15:07:21;16.73;;;10.60;;
13309;SDS011;6723;48.256;16.402;2023-02-28T15:15:26;13.13;;;9.13;;
13309;SDS011;6723;48.256;16.402;2023-02-28T15:18:07;12.57;;;8.83;;
13309;SDS011;6723;48.256;16.402;2023-02-28T15:21:02;13.77;;;9.80;;
13309;SDS011;6723;48.256;16.402;2023-02-28T15:23:32;11.37;;;8.60;;
13309;SDS011;6723;48.256;16.402;2023-02-28T15:26:01;14.97;;;9.07;;
13309;SDS011;6723;48.256;16.402;2023-02-28T15:28:28;13.53;;;9.60;;
13309;SDS011;6723;48.256;16.402;2023-02-28T15:30:56;11.67;;;9.43;;
13309;SDS011;6723;48.256;16.402;2023-02-28T15:33:31;10.80;;;8.83;;
13309;SDS011;6723;48.256;16.402;2023-02-28T15:36:06;13.17;;;9.27;;
13309;SDS011;6723;48.256;16.402;2023-02-28T15:38:38;10.63;;;8.70;;
13309;SDS011;6723;48.256;16.402;2023-02-28T15:41:04;12.57;;;9.20;;
13309;SDS011;6723;48.256;16.402;2023-02-28T15:48:33;12.97;;;9.87;;
13309;SDS011;6723;48.256;16.402;2023-02-28T15:53:58;12.53;;;9.33;;
13309;SDS011;6723;48.256;16.402;2023-02-28T15:56:28;13.73;;;10.07;;
13309;SDS011;6723;48.256;16.402;2023-02-28T15:58:57;12.50;;;9.27;;
13309;SDS011;6723;48.256;16.402;2023-02-28T16:01:33;14.30;;;10.30;;
13309;SDS011;6723;48.256;16.402;2023-02-28T16:04:14;17.33;;;9.53;;
13309;SDS011;6723;48.256;16.402;2023-02-28T16:09:20;11.13;;;9.23;;
13309;SDS011;6723;48.256;16.402;2023-02-28T16:11:49;11.83;;;9.10;;
13309;SDS011;6723;48.256;16.402;2023-02-28T16:14:19;11.67;;;9.27;;
13309;SDS011;6723;48.256;16.402;2023-02-28T16:16:51;12.53;;;9.07;;
13309;SDS011;6723;48.256;16.402;2023-02-28T16:19:19;12.30;;;8.87;;
13309;SDS011;6723;48.256;16.402;2023-02-28T16:21:45;12.20;;;9.43;;
13309;SDS011;6723;48.256;16.402;2023-02-28T16:24:11;12.23;;;9.00;;
13309;SDS011;6723;48.256;16.402;2023-02-28T16:26:38;12.53;;;9.07;;
13309;SDS011;6723;48.256;16.402;2023-02-28T16:29:06;14.53;;;9.90;;
13309;SDS011;6723;48.256;16.402;2023-02-28T16:31:35;12.80;;;9.97;;
13309;SDS011;6723;48.256;16.402;2023-02-28T16:34:03;15.80;;;10.73;;
13309;SDS011;6723;48.256;16.402;2023-02-28T16:36:29;12.30;;;9.30;;
13309;SDS011;6723;48.256;16.402;2023-02-28T16:38:55;11.97;;;9.37;;
13309;SDS011;6723;48.256;16.402;2023-02-28T16:41:23;14.40;;;9.50;;
13309;SDS011;6723;48.256;16.402;2023-02-28T16:43:52;12.90;;;9.40;;
13309;SDS011;6723;48.256;16.402;2023-02-28T16:46:27;11.00;;;9.00;;
13309;SDS011;6723;48.256;16.402;2023-02-28T16:48:58;12.80;;;9.33;;
13309;SDS011;6723;48.256;16.402;2023-02-28T16:51:24;15.53;;;10.90;;
13309;SDS011;6723;48.256;16.402;2023-02-28T16:53:50;15.97;;;10.63;;
13309;SDS011;6723;48.256;16.402;2023-02-28T16:56:19;13.20;;;9.93;;
13309;SDS011;6723;48.256;16.402;2023-02-28T16:58:47;14.33;;;10.77;;
13309;SDS011;6723;48.256;16.402;2023-02-28T17:01:14;14.23;;;10.93;;
13309;SDS011;6723;48.256;16.402;2023-02-28T17:03:52;15.37;;;11.13;;
13309;SDS011;6723;48.256;16.402;2023-02-28T17:06:28;13.47;;;10.30;;
13309;SDS011;6723;48.256;16.402;2023-02-28T17:08:55;16.03;;;10.77;;
13309;SDS011;6723;48.256;16.402;2023-02-28T17:11:22;15.37;;;10.70;;
13309;SDS011;6723;48.256;16.402;2023-02-28T17:13:49;17.30;;;12.03;;
13309;SDS011;6723;48.256;16.402;2023-02-28T17:18:40;15.00;;;10.90;;
13309;SDS011;6723;48.256;16.402;2023-02-28T17:21:10;13.40;;;10.13;;
13309;SDS011;6723;48.256;16.402;2023-02-28T17:23:39;18.80;;;10.97;;
13309;SDS011;6723;48.256;16.402;2023-02-28T17:26:05;13.03;;;10.07;;
13309;SDS011;6723;48.256;16.402;2023-02-28T17:28:31;15.07;;;9.90;;
13309;SDS011;6723;48.256;16.402;2023-02-28T17:30:57;15.13;;;10.00;;
13309;SDS011;6723;48.256;16.402;2023-02-28T17:33:23;15.63;;;10.37;;
13309;SDS011;6723;48.256;16.402;2023-02-28T17:35:49;13.27;;;9.63;;
13309;SDS011;6723;48.256;16.402;2023-02-28T17:38:16;13.73;;;10.70;;